Time;durP1;ratioP1;P1;durP2;ratioP2;P2;SDS_P1;SDS_P2;PMS_P1;PMS_P2;Temp;Humidity;BMP_temperature;BMP_pressure;BME280_temperature;BME280_humidity;BME280_pressure;Samples;Min_cycle;Max_cycle;Signal;HPM_P1;HPM_P2
2022/10/14 00:01:15;;;;;;;41.35;22.20;;;;;;;8.35;76.67;101040.78;1832041;78;27516;-80
2022/10/14 00:03:44;;;;;;;47.48;22.95;;;;;;;8.31;76.84;101043.44;1804671;78;25504;-80
2022/10/14 00:06:17;;;;;;;39.67;21.50;;;;;;;8.29;76.92;101041.43;1812484;77;25747;-80
2022/10/14 00:08:46;;;;;;;46.13;21.90;;;;;;;;;;1823590;77;26514;-80
2022/10/14 00:11:22;;;;;;;42.20;22.73;;;;;;;8.29;77.01;101038.76;1828274;77;25967;-79
2022/10/14 00:13:50;;;;;;;41.40;22.77;;;;;;;8.26;77.04;101041.25;1801533;78;27447;-80
2022/10/14 00:16:21;;;;;;;39.80;21.95;;;;;;;8.24;77.01;101035.69;1815083;78;25676;-80
2022/10/14 00:18:48;;;;;;;39.80;21.70;;;;;;;8.23;77.01;101029.52;1810244;77;25818;-80
2022/10/14 00:21:15;;;;;;;33.33;19.60;;;;;;;8.23;77.03;101032.18;1800702;78;25801;-80
2022/10/14 00:23:42;;;;;;;38.05;20.00;;;;;;;8.22;77.16;101036.36;1782902;79;25813;-80
2022/10/14 00:26:18;;;;;;;37.60;20.88;;;;;;;8.21;77.19;101034.17;1746989;80;28225;-80
2022/10/14 00:28:45;;;;;;;38.78;21.37;;;;;;;8.19;77.29;101031.36;1738701;81;25778;-80
2022/10/14 00:31:11;;;;;;;38.15;22.25;;;;;;;8.18;77.33;101028.34;1754830;80;25755;-80
2022/10/14 00:33:38;;;;;;;39.58;21.10;;;;;;;8.18;77.52;101031.84;1737416;80;25849;-80
2022/10/14 00:36:06;;;;;;;40.28;20.90;;;;;;;8.17;77.58;101026.16;1752692;80;25779;-81
2022/10/14 00:38:35;;;;;;;34.50;21.68;;;;;;;8.18;77.72;101025.18;1758097;81;27455;-80
2022/10/14 00:41:01;;;;;;;35.80;21.42;;;;;;;8.16;77.79;101026.33;1812868;77;25812;-81
2022/10/14 00:43:28;;;;;;;34.70;21.02;;;;;;;8.14;77.90;101025.66;1749429;80;25792;-81
2022/10/14 00:45:55;;;;;;;44.15;22.67;;;;;;;8.14;77.99;101018.98;1740314;80;26582;-81
2022/10/14 00:48:25;;;;;;;43.95;23.47;;;;;;;8.13;78.05;101023.97;1809375;77;25715;-80
2022/10/14 00:50:55;;;;;;;44.05;23.50;;;;;;;8.11;78.20;101014.80;1808283;77;28256;-81
2022/10/14 00:53:22;;;;;;;44.93;22.87;;;;;;;8.08;78.35;101023.14;1811151;77;26205;-81
2022/10/14 00:55:49;;;;;;;37.42;20.88;;;;;;;8.08;78.48;101020.97;1808025;78;25569;-80
2022/10/14 00:58:15;;;;;;;42.00;22.05;;;;;;;8.08;78.59;101021.81;1806820;79;25872;-80
2022/10/14 01:00:42;;;;;;;41.77;23.35;;;;;;;8.11;78.78;101012.63;1836719;78;25800;-80
2022/10/14 01:03:21;;;;;;;41.35;23.60;;;;;;;8.10;78.87;101004.30;1764051;79;27432;-81
2022/10/14 01:06:02;;;;;;;39.33;22.02;;;;;;;8.12;78.97;101011.16;1751728;80;25816;-80
2022/10/14 01:08:42;;;;;;;36.73;21.40;;;;;;;8.11;79.09;101008.62;1771334;79;26489;-80
2022/10/14 01:11:20;;;;;;;43.13;22.00;;;;;;;8.10;79.26;101001.14;1772880;78;25819;-80
2022/10/14 01:14:13;;;;;;;41.42;22.52;;;;;;;8.11;79.42;101004.62;1771594;79;25669;-80
2022/10/14 01:16:57;;;;;;;39.15;22.62;;;;;;;8.11;79.50;100995.28;1830780;77;27933;-81
2022/10/14 01:19:40;;;;;;;39.35;22.67;;;;;;;8.09;79.62;100989.27;1826319;77;25292;-81
2022/10/14 01:22:24;;;;;;;35.68;22.42;;;;;;;8.06;79.65;100992.28;1793910;77;25746;-81
2022/10/14 01:25:19;;;;;;;35.25;22.22;;;;;;;8.04;79.82;100984.41;1815507;77;25772;-82
2022/10/14 01:28:17;;;;;;;43.05;24.15;;;;;;;8.03;79.91;100986.77;1822870;77;25789;-81
2022/10/14 01:30:52;;;;;;;38.98;23.35;;;;;;;8.03;80.04;100984.09;1821308;77;28340;-82
2022/10/14 01:33:25;;;;;;;42.58;22.32;;;;;;;8.03;80.16;100985.92;1827686;77;25811;-81
2022/10/14 01:36:04;;;;;;;46.10;22.30;;;;;;;8.00;80.26;100985.73;1818419;78;25737;-81
2022/10/14 01:38:40;;;;;;;35.88;20.85;;;;;;;7.98;80.26;100983.73;1808762;77;26658;-82
2022/10/14 01:41:17;;;;;;;39.03;22.77;;;;;;;8.02;80.38;100978.93;1827499;77;25906;-81
2022/10/14 01:43:48;;;;;;;39.45;21.60;;;;;;;8.02;80.48;100978.93;1802788;77;27463;-81
2022/10/14 01:46:17;;;;;;;38.45;21.82;;;;;;;8.03;80.50;100976.58;1800152;78;26464;-81
2022/10/14 01:48:53;;;;;;;45.10;22.97;;;;;;;8.03;80.53;100976.58;1833625;77;26011;-81
2022/10/14 01:51:28;;;;;;;40.23;21.27;;;;;;;8.02;80.65;100977.08;1815982;77;25801;-81
2022/10/14 01:54:03;;;;;;;40.73;22.10;;;;;;;8.03;80.75;100973.91;1822264;77;25731;-80
2022/10/14 01:56:31;;;;;;;39.38;22.02;;;;;;;8.00;80.82;100970.25;1816585;77;27469;-81
2022/10/14 01:59:00;;;;;;;37.15;22.27;;;;;;;7.98;80.93;100972.22;1785537;79;25332;-81
2022/10/14 02:01:27;;;;;;;40.10;21.57;;;;;;;7.97;81.07;100971.90;1820679;77;26600;-82
2022/10/14 02:03:54;;;;;;;38.50;22.82;;;;;;;7.96;81.18;100964.38;1813440;77;26559;-81
2022/10/14 02:06:31;;;;;;;41.05;22.98;;;;;;;8.00;81.25;100964.92;1802760;77;25807;-81
2022/10/14 02:09:24;;;;;;;39.20;22.37;;;;;;;8.00;81.31;100966.25;1806563;77;27471;-81
2022/10/14 02:12:17;;;;;;;36.55;21.37;;;;;;;7.97;81.27;100962.56;1814725;77;26468;-81
2022/10/14 02:15:17;;;;;;;40.83;22.07;;;;;;;7.97;81.36;100965.23;1821172;77;25821;-81
2022/10/14 02:17:58;;;;;;;41.08;22.40;;;;;;;7.93;81.32;100961.22;1823337;77;25941;-81
2022/10/14 02:20:30;;;;;;;39.00;21.35;;;;;;;7.92;81.39;100961.70;1823457;77;26482;-82
2022/10/14 02:23:07;;;;;;;37.53;22.22;;;;;;;7.92;81.40;100959.04;1815572;77;27455;-81
2022/10/14 02:25:38;;;;;;;38.78;22.22;;;;;;;7.92;81.35;100951.03;1822722;77;26507;-81
2022/10/14 02:28:07;;;;;;;;;;;;;;;7.93;81.35;100950.55;1814453;77;25745;-81
2022/10/14 02:30:40;;;;;;;35.15;20.97;;;;;;;7.91;81.39;100953.88;1813752;77;25771;-81
2022/10/14 02:33:07;;;;;;;42.80;21.40;;;;;;;7.87;81.45;100949.86;1826865;77;25742;-82
2022/10/14 02:35:35;;;;;;;37.95;22.45;;;;;;;7.84;81.44;100945.67;1809748;77;28140;-81
2022/10/14 02:38:06;;;;;;;33.58;22.13;;;;;;;7.79;81.44;100947.48;1830153;77;26155;-80
2022/10/14 02:40:42;;;;;;;34.58;21.77;;;;;;;7.76;81.57;100942.98;1806108;77;25812;-80
2022/10/14 02:43:10;;;;;;;40.70;23.30;;;;;;;7.75;81.64;100938.14;1832719;77;25800;-79
2022/10/14 02:45:43;;;;;;;38.73;21.87;;;;;;;7.75;81.62;100936.81;1808422;77;26233;-80
2022/10/14 02:48:11;;;;;;;34.13;21.60;;;;;;;7.71;81.61;100935.46;1815857;77;27514;-80
2022/10/14 02:50:38;;;;;;;39.65;23.07;;;;;;;7.70;81.74;100934.27;1812016;77;25857;-80
2022/10/14 02:53:04;;;;;;;37.88;22.65;;;;;;;7.72;81.82;100930.94;1820992;77;25719;-81
2022/10/14 02:55:30;;;;;;;38.33;22.07;;;;;;;7.69;81.81;100932.13;1761844;80;25841;-81
2022/10/14 02:57:58;;;;;;;40.40;22.20;;;;;;;7.67;81.92;100936.78;1755132;80;26541;-82
2022/10/14 03:00:25;;;;;;;37.10;21.77;;;;;;;7.67;82.01;100935.94;1752915;80;28297;-80
2022/10/14 03:02:52;;;;;;;33.85;21.73;;;;;;;7.70;82.11;100928.44;1739035;80;26078;-80
2022/10/14 03:05:19;;;;;;;42.10;22.05;;;;;;;7.72;82.18;100929.12;1739382;80;25804;-81
2022/10/14 03:07:45;;;;;;;34.18;22.00;;;;;;;7.71;82.13;100928.80;1818261;77;25841;-80
2022/10/14 03:10:13;;;;;;;34.53;22.10;;;;;;;7.75;82.13;100923.97;1812510;77;25860;-80
2022/10/14 03:12:39;;;;;;;36.55;23.30;;;;;;;7.74;82.11;100923.12;1815551;77;27588;-80
2022/10/14 03:15:09;;;;;;;35.60;21.57;;;;;;;7.73;82.19;100922.80;1812047;77;26618;-80
2022/10/14 03:17:35;;;;;;;45.35;23.50;;;;;;;7.73;82.30;100921.96;1810538;77;26432;-80
2022/10/14 03:20:05;;;;;;;41.77;23.10;;;;;;;7.73;82.45;100928.63;1808005;77;25850;-80
2022/10/14 03:22:33;;;;;;;37.03;24.05;;;;;;;7.73;82.64;100920.63;1816905;77;26054;-80
2022/10/14 03:24:59;;;;;;;40.10;24.05;;;;;;;7.76;82.70;100925.66;1789612;79;27447;-80
2022/10/14 03:27:30;;;;;;;46.23;24.85;;;;;;;7.75;82.70;100919.97;1814199;77;26427;-80
2022/10/14 03:29:58;;;;;;;41.75;23.15;;;;;;;7.74;82.77;100915.64;1822283;77;25707;-80
2022/10/14 03:32:25;;;;;;;41.70;22.42;;;;;;;7.76;82.82;100922.98;1811149;78;26578;-81
2022/10/14 03:34:59;;;;;;;45.03;24.25;;;;;;;7.76;82.91;100922.98;1796716;77;25889;-80
2022/10/14 03:37:25;;;;;;;42.43;23.75;;;;;;;7.76;82.96;100918.98;1818671;77;27452;-80
2022/10/14 03:39:54;;;;;;;40.60;21.52;;;;;;;7.76;83.07;100914.47;1816318;77;26439;-80
2022/10/14 03:42:20;;;;;;;51.75;25.48;;;;;;;7.77;83.09;100916.15;1817046;77;26499;-80
2022/10/14 03:44:47;;;;;;;44.00;25.05;;;;;;;7.78;83.19;100916.99;1829384;77;25285;-80
2022/10/14 03:47:15;;;;;;;42.23;23.57;;;;;;;7.79;83.22;100912.82;1814753;77;26102;-80
2022/10/14 03:49:44;;;;;;;47.13;24.65;;;;;;;7.82;83.29;100917.00;1823846;77;27444;-80
2022/10/14 03:52:12;;;;;;;45.05;25.70;;;;;;;7.85;83.38;100915.85;1815345;77;25875;-80
2022/10/14 03:54:39;;;;;;;49.65;26.05;;;;;;;7.87;83.49;100912.52;1818668;77;25268;-80
2022/10/14 03:57:06;;;;;;;39.18;23.12;;;;;;;7.86;83.60;100910.84;1802536;77;25936;-80
2022/10/14 03:59:34;;;;;;;39.23;23.85;;;;;;;7.85;83.62;100912.66;1812371;78;25902;-80
2022/10/14 04:02:01;;;;;;;40.30;23.60;;;;;;;7.85;83.75;100912.66;1822581;78;28259;-80
2022/10/14 04:04:27;;;;;;;41.37;23.57;;;;;;;7.88;83.81;100912.35;1816185;77;25843;-80
2022/10/14 04:06:55;;;;;;;39.20;25.12;;;;;;;7.89;83.86;100906.53;1812562;77;25808;-80
2022/10/14 04:09:24;;;;;;;41.90;24.37;;;;;;;7.90;84.03;100912.18;1819477;77;25921;-80
2022/10/14 04:11:50;;;;;;;38.02;22.67;;;;;;;7.90;84.02;100904.18;1831520;77;26425;-80
2022/10/14 04:14:18;;;;;;;40.85;24.00;;;;;;;7.91;84.09;100906.70;1795894;77;28180;-82
2022/10/14 04:16:46;;;;;;;39.08;24.37;;;;;;;7.93;84.21;100905.20;1810134;77;26403;-81
2022/10/14 04:19:13;;;;;;;44.25;24.37;;;;;;;7.95;84.19;100901.87;1813746;77;25743;-80
2022/10/14 04:21:40;;;;;;;40.75;23.73;;;;;;;7.98;84.18;100896.20;1813903;77;25830;-80
2022/10/14 04:24:07;;;;;;;45.58;24.72;;;;;;;7.97;84.13;100896.72;1784778;78;25319;-82
2022/10/14 04:26:44;;;;;;;44.70;24.72;;;;;;;7.99;84.12;100888.55;1811219;77;27384;-80
2022/10/14 04:29:12;;;;;;;42.48;24.25;;;;;;;8.00;84.08;100881.70;1822099;77;25784;-80
2022/10/14 04:31:41;;;;;;;38.30;23.27;;;;;;;8.00;84.08;100883.56;1812859;77;25539;-80
2022/10/14 04:34:09;;;;;;;42.00;24.70;;;;;;;7.99;84.10;100888.05;1813769;77;26108;-80
2022/10/14 04:36:38;;;;;;;43.70;26.17;;;;;;;7.98;84.07;100882.37;1810995;77;25470;-79
2022/10/14 04:39:06;;;;;;;46.37;25.85;;;;;;;7.99;84.15;100884.05;1821186;77;28328;-80
2022/10/14 04:41:33;;;;;;;52.30;26.68;;;;;;;7.99;84.07;100880.54;1806729;77;25968;-80
2022/10/14 04:44:00;;;;;;;44.83;27.22;;;;;;;7.99;84.07;100872.53;1809013;77;25279;-80
2022/10/14 04:46:30;;;;;;;41.50;26.02;;;;;;;8.01;84.07;100870.54;1814095;77;25784;-80
2022/10/14 04:48:56;;;;;;;43.42;26.40;;;;;;;8.01;84.00;100867.87;1820720;77;25773;-80
2022/10/14 04:51:25;;;;;;;46.98;27.45;;;;;;;7.99;83.92;100866.71;1813451;77;27509;-80
2022/10/14 04:54:02;;;;;;;47.73;27.48;;;;;;;8.02;83.93;100870.89;1798816;78;25897;-80
2022/10/14 04:56:37;;;;;;;53.60;27.77;;;;;;;8.02;83.84;100867.70;1808393;77;25842;-80
2022/10/14 04:59:05;;;;;;;44.93;27.02;;;;;;;8.02;83.77;100872.22;1812054;78;25836;-80
2022/10/14 05:01:49;;;;;;;48.55;26.10;;;;;;;7.99;83.72;100866.71;1808582;77;25773;-81
2022/10/14 05:04:16;;;;;;;51.20;27.52;;;;;;;7.98;83.65;100869.03;1808604;77;27618;-80
2022/10/14 05:06:43;;;;;;;57.73;28.10;;;;;;;7.96;83.73;100863.02;1810531;78;25949;-80
2022/10/14 05:09:11;;;;;;;53.85;28.10;;;;;;;7.96;83.79;100855.02;1819210;77;25771;-80
2022/10/14 05:11:38;;;;;;;50.52;27.07;;;;;;;7.99;83.83;100856.04;1821897;77;25759;-80
2022/10/14 05:14:05;;;;;;;48.48;27.17;;;;;;;7.98;83.73;100855.69;1813974;77;25272;-81
2022/10/14 05:16:32;;;;;;;45.63;25.60;;;;;;;7.96;83.75;100860.84;1815237;78;27436;-80
2022/10/14 05:18:58;;;;;;;48.90;25.27;;;;;;;7.96;83.82;100859.52;1822208;77;25778;-80
2022/10/14 05:21:26;;;;;;;43.05;24.35;;;;;;;7.94;83.82;100868.18;1782749;77;26511;-80
2022/10/14 05:23:54;;;;;;;45.75;27.07;;;;;;;7.96;83.92;100864.84;1814431;77;25781;-80
2022/10/14 05:26:22;;;;;;;45.38;26.87;;;;;;;7.98;83.96;100869.52;1806752;77;25800;-81
2022/10/14 05:28:51;;;;;;;51.90;25.95;;;;;;;8.01;84.02;100869.20;1822966;77;28436;-80
2022/10/14 05:31:18;;;;;;;47.25;27.35;;;;;;;8.04;84.10;100869.70;1776109;79;26515;-80
2022/10/14 05:33:47;;;;;;;43.35;26.42;;;;;;;8.07;84.11;100864.55;1819619;77;26408;-80
2022/10/14 05:36:13;;;;;;;43.25;25.80;;;;;;;8.10;84.07;100865.56;1823635;77;25762;-80
2022/10/14 05:38:40;;;;;;;51.83;26.93;;;;;;;8.12;84.12;100866.23;1823929;77;25791;-80
2022/10/14 05:41:06;;;;;;;56.98;26.95;;;;;;;8.13;84.12;100860.72;1817545;77;27440;-80
2022/10/14 05:43:33;;;;;;;50.35;26.95;;;;;;;8.16;84.18;100866.23;1820650;77;25761;-80
2022/10/14 05:46:02;;;;;;;52.83;28.55;;;;;;;8.17;84.16;100875.40;1822805;78;25804;-80
2022/10/14 05:48:31;;;;;;;49.65;28.60;;;;;;;8.21;84.24;100876.73;1822258;77;25999;-80
2022/10/14 05:51:01;;;;;;;51.68;29.70;;;;;;;8.23;84.16;100876.59;1814952;77;26555;-79
2022/10/14 05:53:26;;;;;;;53.17;28.87;;;;;;;8.26;84.19;100875.78;1745027;80;27519;-81
2022/10/14 05:56:04;;;;;;;54.98;28.95;;;;;;;8.32;84.21;100880.95;1725956;81;26503;-80
2022/10/14 05:58:31;;;;;;;48.52;28.17;;;;;;;8.35;84.14;100873.47;1759407;80;25958;-82
2022/10/14 06:01:01;;;;;;;51.65;28.12;;;;;;;8.38;84.06;100875.78;1760726;79;25954;-81
2022/10/14 06:03:28;;;;;;;44.75;27.82;;;;;;;8.40;83.96;100886.31;1812959;77;26487;-81
2022/10/14 06:05:55;;;;;;;52.08;28.60;;;;;;;8.42;83.96;100877.64;1838795;77;27478;-81
2022/10/14 06:08:22;;;;;;;48.85;27.82;;;;;;;8.43;83.92;100879.30;1812777;77;25701;-81
2022/10/14 06:10:50;;;;;;;45.73;28.10;;;;;;;8.46;83.93;100881.64;1810101;77;25267;-81
2022/10/14 06:13:16;;;;;;;46.50;29.35;;;;;;;8.49;84.00;100883.47;1817375;77;25816;-82
2022/10/14 06:15:44;;;;;;;47.25;27.82;;;;;;;8.50;84.02;100882.98;1811516;77;26355;-80
2022/10/14 06:18:11;;;;;;;48.55;28.57;;;;;;;8.55;84.09;100884.66;1818419;77;27956;-80
2022/10/14 06:20:37;;;;;;;68.40;37.35;;;;;;;8.58;84.20;100880.30;1805989;77;26419;-80
2022/10/14 06:23:04;;;;;;;59.40;32.40;;;;;;;8.60;84.16;100880.97;1809446;77;25972;-80
2022/10/14 06:25:30;;;;;;;60.90;35.08;;;;;;;8.60;84.12;100884.97;1751759;80;27173;-80
2022/10/14 06:28:04;;;;;;;66.62;39.78;;;;;;;8.58;84.12;100880.30;1759652;79;26583;-80
2022/10/14 06:30:32;;;;;;;49.77;30.90;;;;;;;8.55;84.07;100881.47;1752263;80;27458;-80
2022/10/14 06:32:58;;;;;;;55.90;34.08;;;;;;;8.50;84.08;100879.81;1756082;81;26508;-80
2022/10/14 06:35:25;;;;;;;49.88;29.20;;;;;;;8.53;84.40;100877.32;1815383;77;25786;-80
2022/10/14 06:37:51;;;;;;;50.92;29.15;;;;;;;8.53;84.45;100882.13;1806876;77;26527;-80
2022/10/14 06:40:17;;;;;;;48.78;29.25;;;;;;;8.54;84.59;100886.98;1824399;77;25797;-80
2022/10/14 06:42:44;;;;;;;52.25;30.43;;;;;;;8.54;84.71;100874.97;1823280;77;27442;-80
2022/10/14 06:45:10;;;;;;;54.23;32.28;;;;;;;8.55;84.94;100872.64;1811264;78;25877;-80
2022/10/14 06:47:39;;;;;;;57.15;31.10;;;;;;;8.60;85.16;100877.48;1823482;78;25755;-80
2022/10/14 06:50:06;;;;;;;66.80;36.75;;;;;;;8.66;85.25;100872.28;1811333;77;25833;-80
2022/10/14 06:52:32;;;;;;;59.85;32.50;;;;;;;8.72;85.32;100873.47;1812567;78;25853;-80
2022/10/14 06:54:59;;;;;;;61.77;30.65;;;;;;;8.77;85.35;100877.28;1813815;77;27439;-80
2022/10/14 06:57:25;;;;;;;56.13;30.97;;;;;;;8.81;85.22;100874.61;1812982;77;26089;-80
2022/10/14 06:59:51;;;;;;;58.95;31.62;;;;;;;8.85;85.12;100869.78;1817266;77;25856;-80
2022/10/14 07:02:18;;;;;;;45.92;28.55;;;;;;;8.90;85.13;100877.61;1811886;77;25821;-81
2022/10/14 07:04:44;;;;;;;48.00;27.65;;;;;;;8.95;85.12;100875.77;1811102;78;25929;-80
2022/10/14 07:07:10;;;;;;;42.88;27.65;;;;;;;8.95;84.84;100877.95;1758763;80;26971;-80
2022/10/14 07:09:36;;;;;;;40.33;26.27;;;;;;;8.99;84.96;100879.77;1822737;78;25250;-80
2022/10/14 07:12:03;;;;;;;46.48;29.35;;;;;;;9.04;84.96;100882.78;1806722;78;25883;-81
2022/10/14 07:14:29;;;;;;;40.98;25.32;;;;;;;9.08;84.89;100891.63;1816764;77;26499;-80
2022/10/14 07:16:56;;;;;;;45.52;25.55;;;;;;;9.12;84.99;100884.93;1810791;77;25735;-81
2022/10/14 07:19:22;;;;;;;47.70;26.45;;;;;;;9.19;85.14;100877.91;1762504;80;27436;-80
2022/10/14 07:21:48;;;;;;;44.13;27.02;;;;;;;9.26;85.18;100890.90;1758397;80;25938;-80
2022/10/14 07:24:15;;;;;;;44.70;26.80;;;;;;;9.32;85.11;100888.06;1750065;80;25824;-80
2022/10/14 07:26:41;;;;;;;50.38;26.62;;;;;;;9.37;85.03;100888.36;1759196;79;26140;-79
2022/10/14 07:29:08;;;;;;;42.67;26.02;;;;;;;9.41;84.89;100887.53;1744257;80;25837;-81
2022/10/14 07:31:34;;;;;;;45.10;26.02;;;;;;;9.44;84.91;100879.15;1745392;80;27445;-79
2022/10/14 07:34:01;;;;;;;50.65;26.35;;;;;;;9.46;84.81;100881.14;1808348;77;25772;-80
2022/10/14 07:36:27;;;;;;;40.92;26.10;;;;;;;9.47;84.71;100881.49;1812968;77;25727;-80
2022/10/14 07:38:54;;;;;;;43.87;25.65;;;;;;;9.51;84.89;100881.47;1808853;78;26322;-79
2022/10/14 07:41:24;;;;;;;42.30;26.33;;;;;;;9.53;84.62;100882.13;1815293;77;25846;-80
2022/10/14 07:43:54;;;;;;;45.05;26.33;;;;;;;9.53;84.72;100876.78;1806585;77;27424;-81
2022/10/14 07:46:28;;;;;;;47.38;25.97;;;;;;;9.58;84.81;100881.93;1810103;77;25877;-80
2022/10/14 07:48:57;;;;;;;45.88;26.97;;;;;;;9.63;84.92;100882.75;1818426;77;25817;-80
2022/10/14 07:51:26;;;;;;;47.62;26.40;;;;;;;9.69;85.01;100882.05;1815282;77;26935;-80
2022/10/14 07:53:54;;;;;;;41.40;25.30;;;;;;;9.77;85.09;100886.05;1811343;78;26520;-80
2022/10/14 07:56:21;;;;;;;43.15;25.85;;;;;;;9.83;84.99;100887.52;1764428;79;27441;-80
2022/10/14 07:58:48;;;;;;;49.50;27.20;;;;;;;9.91;84.99;100885.30;1760158;80;25736;-80
2022/10/14 08:01:15;;;;;;;47.88;25.10;;;;;;;9.99;85.00;100879.89;1760149;79;26474;-80
2022/10/14 08:03:42;;;;;;;40.85;25.00;;;;;;;10.07;85.09;100882.55;1815685;78;27077;-79
2022/10/14 08:06:11;;;;;;;37.00;25.12;;;;;;;10.14;84.99;100885.38;1812082;77;25853;-80
2022/10/14 08:08:37;;;;;;;40.03;24.10;;;;;;;10.23;85.07;100888.31;1821868;77;27498;-80
2022/10/14 08:11:08;;;;;;;40.85;24.95;;;;;;;10.31;85.01;100890.43;1806828;77;26477;-80
2022/10/14 08:13:35;;;;;;;;;;;;;;;10.39;84.96;100889.55;1804028;77;25873;-79
2022/10/14 08:16:01;;;;;;;39.13;26.10;;;;;;;10.46;85.05;100890.48;1817363;78;25739;-80
2022/10/14 08:18:28;;;;;;;41.63;24.32;;;;;;;10.52;84.96;100894.63;1808031;77;25311;-80
2022/10/14 08:20:55;;;;;;;43.02;25.62;;;;;;;10.58;84.81;100894.43;1813223;78;27449;-80
2022/10/14 08:23:21;;;;;;;38.65;24.70;;;;;;;10.64;84.89;100888.34;1820736;77;26301;-80
2022/10/14 08:25:48;;;;;;;38.75;23.10;;;;;;;10.68;84.75;100884.30;1806534;77;25380;-81
2022/10/14 08:28:15;;;;;;;43.38;23.83;;;;;;;10.75;84.62;100878.55;1825515;77;25805;-80
2022/10/14 08:30:41;;;;;;;39.95;24.50;;;;;;;10.80;84.49;100886.85;1814585;77;25834;-80
2022/10/14 08:33:07;;;;;;;41.25;26.48;;;;;;;10.86;84.64;100892.33;1755047;80;27691;-80
2022/10/14 08:35:34;;;;;;;36.65;25.15;;;;;;;10.91;84.49;100894.47;1811357;77;25327;-80
2022/10/14 08:38:01;;;;;;;40.28;24.15;;;;;;;10.97;84.45;100892.92;1808963;77;25669;-81
2022/10/14 08:40:31;;;;;;;38.48;23.92;;;;;;;11.01;84.38;100885.68;1809229;77;26514;-80
2022/10/14 08:43:02;;;;;;;39.65;24.30;;;;;;;11.07;84.42;100892.14;1811938;77;25808;-80
2022/10/14 08:45:40;;;;;;;37.98;23.87;;;;;;;11.13;84.47;100886.05;1824239;77;27439;-80
2022/10/14 08:48:12;;;;;;;41.85;25.00;;;;;;;11.17;84.34;100888.68;1813350;77;25770;-80
2022/10/14 08:50:43;;;;;;;46.25;24.32;;;;;;;11.21;84.19;100888.64;1818925;78;25759;-81
2022/10/14 08:53:21;;;;;;;37.83;23.15;;;;;;;11.26;84.11;100876.86;1807386;77;25759;-81
2022/10/14 08:55:55;;;;;;;42.08;23.50;;;;;;;11.30;84.11;100881.67;1814738;77;25811;-81
2022/10/14 08:58:48;;;;;;;36.40;22.75;;;;;;;11.34;84.12;100879.45;1809026;77;27408;-81
2022/10/14 09:01:34;;;;;;;38.70;22.82;;;;;;;11.39;83.96;100881.91;1816455;77;25699;-82
2022/10/14 09:04:07;;;;;;;40.30;24.43;;;;;;;11.44;83.97;100880.83;1808115;77;25864;-80
2022/10/14 09:06:35;;;;;;;38.23;25.20;;;;;;;11.49;84.01;100874.41;1824473;77;25768;-80
2022/10/14 09:09:33;;;;;;;40.28;26.10;;;;;;;11.54;84.08;100874.70;1809915;78;26575;-80
2022/10/14 09:12:04;;;;;;;43.65;24.75;;;;;;;11.60;83.94;100877.97;1815684;77;27466;-80
2022/10/14 09:14:33;;;;;;;;;;;;;;;11.68;83.84;100877.55;1816450;78;25894;-81
2022/10/14 09:17:05;;;;;;;37.05;23.83;;;;;;;11.70;83.72;100876.36;1790916;78;25713;-81
2022/10/14 09:19:39;;;;;;;43.98;25.55;;;;;;;11.73;83.82;100882.70;1812930;78;26437;-81
2022/10/14 09:22:11;;;;;;;38.90;23.60;;;;;;;11.77;83.78;100873.25;1813311;77;26471;-80
2022/10/14 09:24:37;;;;;;;39.10;23.83;;;;;;;11.86;84.19;100877.50;1805784;77;27459;-80
2022/10/14 09:27:10;;;;;;;37.05;23.95;;;;;;;11.92;84.05;100878.59;1816764;77;26462;-80
2022/10/14 09:29:54;;;;;;;38.10;23.52;;;;;;;11.97;83.75;100867.63;1810733;77;25565;-80
2022/10/14 09:32:34;;;;;;;38.67;24.95;;;;;;;12.08;84.10;100871.13;1820316;77;25764;-81
2022/10/14 09:35:13;;;;;;;43.42;23.87;;;;;;;12.19;84.03;100875.17;1811936;77;25911;-85
2022/10/14 09:37:41;;;;;;;49.40;26.17;;;;;;;12.26;83.78;100868.02;1813441;77;28246;-83
2022/10/14 09:40:16;;;;;;;42.98;24.52;;;;;;;12.34;83.57;100867.89;1812092;78;26007;-80
2022/10/14 09:43:02;;;;;;;42.83;25.45;;;;;;;12.41;83.23;100867.45;1814115;77;25739;-86
2022/10/14 09:45:50;;;;;;;40.73;25.77;;;;;;;12.50;83.67;100870.34;1818052;77;25831;-81
2022/10/14 09:48:45;;;;;;;40.23;26.23;;;;;;;12.60;83.73;100872.18;1811746;77;25742;-80
2022/10/14 09:51:28;;;;;;;42.23;26.60;;;;;;;12.69;83.60;100869.69;1806067;77;27468;-80
2022/10/14 09:54:03;;;;;;;46.75;26.57;;;;;;;12.77;83.72;100864.16;1808975;77;25595;-81
2022/10/14 09:56:38;;;;;;;44.40;27.87;;;;;;;12.87;83.93;100861.16;1813339;77;25868;-80
2022/10/14 09:59:23;;;;;;;41.90;27.25;;;;;;;12.96;83.75;100860.80;1809676;77;26065;-80
2022/10/14 10:01:56;;;;;;;37.78;25.32;;;;;;;13.05;83.54;100856.12;1819500;77;25728;-81
2022/10/14 10:04:45;;;;;;;42.08;25.92;;;;;;;13.15;83.35;100858.78;1816380;78;27459;-80
2022/10/14 10:07:25;;;;;;;44.48;26.68;;;;;;;13.25;83.74;100858.45;1814050;77;25879;-82
2022/10/14 10:09:57;;;;;;;46.37;27.17;;;;;;;13.35;83.38;100856.22;1776282;79;25327;-86
2022/10/14 10:12:31;;;;;;;44.30;26.90;;;;;;;13.42;83.31;100851.72;1747872;80;26890;-84
2022/10/14 10:15:03;;;;;;;42.10;27.22;;;;;;;13.51;83.25;100856.42;1746695;80;26368;-83
2022/10/14 10:17:37;;;;;;;47.70;27.20;;;;;;;13.57;83.40;100851.58;1780994;79;28260;-82
2022/10/14 10:20:32;;;;;;;49.35;27.10;;;;;;;13.64;83.26;100846.53;1749850;80;25746;-81
2022/10/14 10:23:25;;;;;;;42.58;27.02;;;;;;;13.69;82.92;100841.38;1748501;80;26805;-79
2022/10/14 10:25:52;;;;;;;39.83;28.00;;;;;;;13.76;83.05;100846.29;1757451;79;25827;-78
2022/10/14 10:28:30;;;;;;;45.80;28.15;;;;;;;13.82;83.01;100844.13;1772867;80;25751;-80
2022/10/14 10:31:21;;;;;;;42.27;27.50;;;;;;;13.89;82.90;100833.38;1746229;80;28432;-79
2022/10/14 10:33:59;;;;;;;40.78;26.75;;;;;;;13.96;82.96;100830.71;1762874;80;26415;-80
2022/10/14 10:36:35;;;;;;;45.48;28.15;;;;;;;14.00;82.87;100828.76;1755399;80;26397;-80
2022/10/14 10:39:27;;;;;;;46.40;27.93;;;;;;;14.06;82.72;100829.80;1761623;80;25864;-80
2022/10/14 10:42:17;;;;;;;39.63;28.32;;;;;;;14.13;82.80;100831.48;1768990;79;26157;-82
2022/10/14 10:45:06;;;;;;;46.53;27.30;;;;;;;14.20;82.62;100829.61;1756278;80;27445;-80
2022/10/14 10:47:47;;;;;;;42.75;29.18;;;;;;;14.27;82.82;100828.28;1818453;77;26570;-80
2022/10/14 10:50:28;;;;;;;46.63;29.02;;;;;;;14.36;82.81;100827.09;1810897;77;25915;-80
2022/10/14 10:53:13;;;;;;;43.75;28.47;;;;;;;14.42;82.23;100816.31;1808439;77;25923;-80
2022/10/14 10:56:19;;;;;;;45.00;28.75;;;;;;;14.50;82.38;100813.92;1810925;77;25711;-80
2022/10/14 10:59:01;;;;;;;62.50;33.30;;;;;;;14.59;82.45;100810.83;1816503;77;28240;-79
2022/10/14 11:01:51;;;;;;;56.73;29.52;;;;;;;14.69;82.43;100812.58;1801755;77;26037;-80
2022/10/14 11:04:33;;;;;;;45.48;29.10;;;;;;;14.81;81.99;100811.95;1810823;77;26481;-80
2022/10/14 11:13:24;;;;;;;45.28;29.48;;;;;;;15.10;81.67;100810.13;1810752;77;27468;-80
2022/10/14 11:16:08;;;;;;;45.98;29.02;;;;;;;15.18;81.41;100807.23;1809889;77;26111;-80
2022/10/14 11:18:52;;;;;;;46.50;29.82;;;;;;;15.25;81.37;100805.33;1818048;77;25803;-80
2022/10/14 11:21:46;;;;;;;51.48;30.92;;;;;;;15.31;80.97;100803.16;1809302;78;26194;-80
2022/10/14 11:24:27;;;;;;;46.48;29.87;;;;;;;15.38;81.14;100807.98;1815327;77;25937;-80
2022/10/14 11:27:16;;;;;;;42.75;29.18;;;;;;;15.46;80.75;100801.06;1819650;77;27517;-79
2022/10/14 11:30:12;;;;;;;41.80;28.10;;;;;;;15.53;80.50;100799.66;1809852;78;26148;-79
2022/10/14 11:33:17;;;;;;;51.18;30.08;;;;;;;15.60;79.90;100797.77;1813857;78;26430;-79
2022/10/14 11:35:52;;;;;;;47.75;27.60;;;;;;;15.64;79.60;100801.69;1750469;80;25824;-79
2022/10/14 11:38:48;;;;;;;42.15;28.87;;;;;;;15.66;79.25;100792.84;1753835;79;25722;-77
2022/10/14 11:41:23;;;;;;;45.23;28.77;;;;;;;15.68;79.27;100782.14;1763882;79;27450;-79
2022/10/14 11:44:07;;;;;;;49.08;27.13;;;;;;;15.73;79.57;100789.09;1815898;77;25955;-79
2022/10/14 11:46:39;;;;;;;44.55;26.93;;;;;;;15.77;79.60;100786.26;1814291;78;26003;-80